createdAt,value
2018-11-07T00:00:18.647Z,94605.87
2018-11-07T00:02:47.866Z,94611.89
2018-11-07T00:05:18.171Z,94616.56
2018-11-07T00:07:47.436Z,94608.40
2018-11-07T00:10:16.673Z,94607.16
2018-11-07T00:12:45.923Z,94609.87
2018-11-07T00:15:15.936Z,94608.72
2018-11-07T00:17:45.170Z,94612.30
2018-11-07T00:20:14.378Z,94609.93
2018-11-07T00:22:43.558Z,94603.67
2018-11-07T00:25:13.029Z,94605.44
2018-11-07T00:27:42.323Z,94607.34
2018-11-07T00:30:12.010Z,94616.50
2018-11-07T00:32:41.183Z,94618.19
2018-11-07T00:35:11.406Z,94615.09
2018-11-07T00:37:41.166Z,94616.77
2018-11-07T00:40:10.353Z,94612.23
2018-11-07T00:42:39.531Z,94612.20
2018-11-07T00:45:11.002Z,94614.11
2018-11-07T00:47:40.198Z,94615.33
2018-11-07T00:50:12.735Z,94609.95
2018-11-07T00:52:42.215Z,94615.36
2018-11-07T00:55:11.871Z,94609.80
2018-11-07T00:57:41.196Z,94605.31
2018-11-07T01:00:13.883Z,94602.23
2018-11-07T01:02:43.061Z,94603.42
2018-11-07T01:05:13.190Z,94600.88
2018-11-07T01:07:43.366Z,94594.78
2018-11-07T01:10:12.575Z,94590.70
2018-11-07T01:12:42.589Z,94589.11
2018-11-07T01:15:12.516Z,94594.80
2018-11-07T01:17:41.756Z,94593.74
2018-11-07T01:20:12.398Z,94591.33
2018-11-07T01:22:41.588Z,94588.13
2018-11-07T01:25:10.789Z,94588.72
2018-11-07T01:27:39.990Z,94589.08
2018-11-07T01:30:12.015Z,94583.34
2018-11-07T01:32:41.331Z,94583.47
2018-11-07T01:35:10.531Z,94580.34
2018-11-07T01:37:40.002Z,94578.86
2018-11-07T01:40:11.886Z,94573.23
2018-11-07T01:42:41.111Z,94572.23
2018-11-07T01:45:11.159Z,94569.69
2018-11-07T01:47:40.343Z,94572.58
2018-11-07T01:50:11.743Z,94565.01
2018-11-07T01:52:41.070Z,94565.30
2018-11-07T01:55:10.753Z,94563.53
2018-11-07T01:57:40.500Z,94569.33
2018-11-07T02:00:11.747Z,94569.03
2018-11-07T02:02:41.947Z,94563.89
2018-11-07T02:05:11.145Z,94562.12
2018-11-07T02:07:40.711Z,94558.22
2018-11-07T02:10:10.535Z,94557.56
2018-11-07T02:12:40.284Z,94558.02
2018-11-07T02:15:10.235Z,94555.36
2018-11-07T02:17:39.434Z,94558.78
2018-11-07T02:20:10.284Z,94555.41
2018-11-07T02:22:39.502Z,94556.26
2018-11-07T02:25:10.360Z,94555.62
2018-11-07T02:27:40.043Z,94569.73
2018-11-07T02:30:12.538Z,94561.19
2018-11-07T02:32:41.734Z,94556.50
2018-11-07T02:35:10.959Z,94564.29
2018-11-07T02:37:40.208Z,94564.27
2018-11-07T02:40:09.674Z,94567.69
2018-11-07T02:42:39.066Z,94566.67
2018-11-07T02:45:08.254Z,94567.81
2018-11-07T02:47:37.507Z,94563.28
2018-11-07T02:50:07.975Z,94563.67
2018-11-07T02:52:37.150Z,94565.05
2018-11-07T02:55:06.537Z,94565.65
2018-11-07T02:57:35.946Z,94558.30
2018-11-07T03:00:07.165Z,94553.84
2018-11-07T03:02:36.395Z,94547.05
2018-11-07T03:05:05.669Z,94544.16
2018-11-07T03:07:34.862Z,94543.53
2018-11-07T03:10:04.507Z,94541.00
2018-11-07T03:12:33.741Z,94537.30
2018-11-07T03:15:02.954Z,94523.84
2018-11-07T03:17:32.196Z,94529.11
2018-11-07T03:20:01.396Z,94529.44
2018-11-07T03:22:31.099Z,94516.84
2018-11-07T03:25:00.283Z,94535.02
2018-11-07T03:27:29.574Z,94536.48
2018-11-07T03:29:58.758Z,94536.19
2018-11-07T03:32:27.946Z,94538.91
2018-11-07T03:34:57.135Z,94539.73
2018-11-07T03:37:26.318Z,94542.08
2018-11-07T03:39:56.784Z,94547.55
2018-11-07T03:42:25.935Z,94545.69
2018-11-07T03:44:55.116Z,94539.95
2018-11-07T03:47:24.349Z,94541.34
2018-11-07T03:49:53.558Z,94535.16
2018-11-07T03:52:22.763Z,94527.63
2018-11-07T03:54:51.951Z,94522.92
2018-11-07T03:57:21.143Z,94519.84
2018-11-07T03:59:50.335Z,94514.59
2018-11-07T04:02:19.527Z,94519.84
2018-11-07T04:04:48.725Z,94519.94
2018-11-07T04:07:17.903Z,94524.78
2018-11-07T04:09:47.095Z,94524.49
2018-11-07T04:12:16.296Z,94522.06
2018-11-07T04:14:45.510Z,94514.10
2018-11-07T04:17:14.702Z,94515.73
2018-11-07T04:19:43.907Z,94510.59
2018-11-07T04:22:13.095Z,94516.37
2018-11-07T04:24:42.311Z,94522.81
2018-11-07T04:27:11.489Z,94522.91
2018-11-07T04:29:40.674Z,94517.94
2018-11-07T04:32:09.882Z,94515.86
2018-11-07T04:34:39.074Z,94513.60
2018-11-07T04:37:08.274Z,94503.08
2018-11-07T04:39:37.458Z,94504.70
2018-11-07T04:42:06.660Z,94501.44
2018-11-07T04:44:35.849Z,94505.59
2018-11-07T04:47:05.027Z,94499.30
2018-11-07T04:49:34.223Z,94498.95
2018-11-07T04:52:03.467Z,94494.49
2018-11-07T04:54:32.672Z,94495.20
2018-11-07T04:57:01.843Z,94502.91
2018-11-07T04:59:31.075Z,94503.77
2018-11-07T05:02:00.274Z,94502.70
2018-11-07T05:04:29.498Z,94505.02
2018-11-07T05:06:58.714Z,94505.97
2018-11-07T05:09:27.903Z,94511.11
2018-11-07T05:11:57.132Z,94505.19
2018-11-07T05:14:26.366Z,94507.00
2018-11-07T05:16:55.567Z,94501.05
2018-11-07T05:19:24.771Z,94497.92
2018-11-07T05:21:53.975Z,94497.14
2018-11-07T05:24:23.195Z,94499.38
2018-11-07T05:26:52.405Z,94504.98
2018-11-07T05:29:21.596Z,94504.36
2018-11-07T05:31:50.803Z,94509.81
2018-11-07T05:34:19.983Z,94510.36
2018-11-07T05:36:49.199Z,94505.34
2018-11-07T05:39:18.415Z,94499.10
2018-11-07T05:41:47.596Z,94504.36
2018-11-07T05:44:16.796Z,94507.25
2018-11-07T05:46:46.006Z,94498.92
2018-11-07T05:49:15.266Z,94503.95
2018-11-07T05:51:44.476Z,94503.55
2018-11-07T05:54:13.684Z,94499.38
2018-11-07T05:56:42.895Z,94501.02
2018-11-07T05:59:12.094Z,94500.69
2018-11-07T06:01:41.332Z,94504.84
2018-11-07T06:04:10.606Z,94498.72
2018-11-07T06:06:39.832Z,94504.91
2018-11-07T06:09:09.189Z,94503.95
2018-11-07T06:11:38.896Z,94512.95
2018-11-07T06:14:08.202Z,94519.78
2018-11-07T06:16:37.473Z,94514.73
2018-11-07T06:19:06.773Z,94516.64
2018-11-07T06:21:35.979Z,94516.06
2018-11-07T06:24:05.441Z,94517.20
2018-11-07T06:26:34.680Z,94515.35
2018-11-07T06:29:03.870Z,94515.42
2018-11-07T06:31:33.236Z,94519.27
2018-11-07T06:34:02.458Z,94515.59
2018-11-07T06:36:31.626Z,94519.32
2018-11-07T06:39:00.855Z,94523.05
2018-11-07T06:41:30.051Z,94520.85
2018-11-07T06:43:59.239Z,94525.05
2018-11-07T06:46:28.443Z,94518.48
2018-11-07T06:48:57.685Z,94514.94
2018-11-07T06:51:27.165Z,94501.80
2018-11-07T06:53:56.348Z,94511.61
2018-11-07T06:56:25.524Z,94517.73
2018-11-07T06:58:54.735Z,94517.89
2018-11-07T07:01:23.975Z,94521.77
2018-11-07T07:03:53.179Z,94530.08
2018-11-07T07:06:22.376Z,94522.95
2018-11-07T07:08:51.681Z,94535.37
2018-11-07T07:11:20.856Z,94527.81
2018-11-07T07:13:50.051Z,94535.73
2018-11-07T07:16:19.260Z,94539.44
2018-11-07T07:18:48.442Z,94538.71
2018-11-07T07:21:17.688Z,94544.78
2018-11-07T07:23:46.814Z,94546.84
2018-11-07T07:26:15.990Z,94541.84
2018-11-07T07:28:45.174Z,94538.12
2018-11-07T07:31:14.406Z,94539.91
2018-11-07T07:33:45.168Z,94538.08
2018-11-07T07:36:14.397Z,94535.53
2018-11-07T07:38:43.626Z,94534.59
2018-11-07T07:41:12.827Z,94530.55
2018-11-07T07:43:42.036Z,94525.33
2018-11-07T07:46:11.238Z,94525.48
2018-11-07T07:48:41.192Z,94514.88
2018-11-07T07:51:10.398Z,94498.92
2018-11-07T07:53:39.657Z,94495.46
2018-11-07T07:56:08.848Z,94496.89
2018-11-07T07:58:38.097Z,94487.94
2018-11-07T08:01:07.315Z,94475.87
2018-11-07T08:03:36.542Z,94489.23
2018-11-07T08:06:06.093Z,94491.14
2018-11-07T08:08:35.270Z,94493.27
2018-11-07T08:11:04.557Z,94495.09
2018-11-07T08:13:33.854Z,94493.16
2018-11-07T08:16:03.304Z,94500.88
2018-11-07T08:18:33.491Z,94498.91
2018-11-07T08:21:02.693Z,94485.42
2018-11-07T08:23:32.090Z,94484.88
2018-11-07T08:26:01.288Z,94502.84
2018-11-07T08:28:30.464Z,94508.53
2018-11-07T08:30:59.703Z,94501.30
2018-11-07T08:33:28.956Z,94502.39
2018-11-07T08:35:58.173Z,94490.31
2018-11-07T08:38:27.386Z,94487.44
2018-11-07T08:40:56.588Z,94498.06
2018-11-07T08:43:25.790Z,94500.45
2018-11-07T08:45:54.970Z,94506.14
2018-11-07T08:48:24.148Z,94506.45
2018-11-07T08:50:53.318Z,94499.21
2018-11-07T08:53:22.511Z,94497.17
2018-11-07T08:55:51.703Z,94507.13
2018-11-07T08:58:20.898Z,94516.23
2018-11-07T09:00:50.127Z,94513.18
2018-11-07T09:03:19.333Z,94510.84
2018-11-07T09:05:48.533Z,94505.77
2018-11-07T09:08:17.740Z,94508.83
2018-11-07T09:10:46.915Z,94500.71
2018-11-07T09:13:16.111Z,94498.47
2018-11-07T09:15:45.363Z,94497.15
2018-11-07T09:18:14.840Z,94498.08
2018-11-07T09:20:44.042Z,94494.87
2018-11-07T09:23:13.230Z,94496.86
2018-11-07T09:25:43.086Z,94488.69
2018-11-07T09:28:12.295Z,94490.64
2018-11-07T09:30:41.475Z,94485.55
2018-11-07T09:33:10.687Z,94489.49
2018-11-07T09:35:39.874Z,94482.49
2018-11-07T09:38:09.070Z,94476.67
2018-11-07T09:40:38.273Z,94473.91
2018-11-07T09:43:07.473Z,94471.85
2018-11-07T09:45:36.663Z,94474.48
2018-11-07T09:48:05.944Z,94468.64
2018-11-07T09:50:35.071Z,94475.63
2018-11-07T09:53:04.358Z,94480.62
2018-11-07T09:55:33.566Z,94479.92
2018-11-07T09:58:02.788Z,94476.41
2018-11-07T10:00:31.970Z,94472.12
2018-11-07T10:03:01.181Z,94470.62
2018-11-07T10:05:30.455Z,94467.83
2018-11-07T10:07:59.571Z,94463.11
2018-11-07T10:10:28.779Z,94453.73
2018-11-07T10:12:57.967Z,94453.53
2018-11-07T10:15:27.175Z,94457.52
2018-11-07T10:17:56.347Z,94450.13
2018-11-07T10:20:25.586Z,94457.75
2018-11-07T10:22:54.782Z,94460.61
2018-11-07T10:25:23.967Z,94460.73
2018-11-07T10:27:53.599Z,94457.50
2018-11-07T10:30:22.532Z,94459.05
2018-11-07T10:32:51.983Z,94452.47
2018-11-07T10:35:21.176Z,94454.34
2018-11-07T10:37:51.701Z,94447.52
2018-11-07T10:40:24.102Z,94451.66
2018-11-07T10:42:53.460Z,94450.33
2018-11-07T10:45:22.646Z,94441.38
2018-11-07T10:47:52.142Z,94441.54
2018-11-07T10:50:21.867Z,94429.73
2018-11-07T10:52:51.334Z,94429.05
2018-11-07T10:55:20.529Z,94432.80
2018-11-07T10:57:49.725Z,94427.98
2018-11-07T11:00:24.071Z,94425.77
2018-11-07T11:02:58.367Z,94414.02
2018-11-07T11:05:36.555Z,94414.78
2018-11-07T11:08:06.253Z,94400.76
2018-11-07T11:10:35.419Z,94405.31
2018-11-07T11:13:04.921Z,94406.17
2018-11-07T11:15:34.140Z,94401.89
2018-11-07T11:18:03.389Z,94388.25
2018-11-07T11:20:32.592Z,94398.05
2018-11-07T11:23:01.810Z,94399.70
2018-11-07T11:25:31.029Z,94398.91
2018-11-07T11:28:00.216Z,94384.98
2018-11-07T11:30:29.687Z,94386.61
2018-11-07T11:32:58.862Z,94389.78
2018-11-07T11:35:28.072Z,94393.03
2018-11-07T11:37:57.276Z,94390.33
2018-11-07T11:40:26.507Z,94387.16
2018-11-07T11:42:55.703Z,94381.53
2018-11-07T11:45:24.895Z,94369.90
2018-11-07T11:47:54.110Z,94366.55
2018-11-07T11:50:23.299Z,94366.31
2018-11-07T11:52:52.511Z,94362.88
2018-11-07T11:55:21.687Z,94357.48
2018-11-07T11:57:50.881Z,94358.08
2018-11-07T12:00:21.058Z,94366.98
2018-11-07T12:02:50.423Z,94355.05
2018-11-07T12:05:20.207Z,94352.20
2018-11-07T12:07:49.396Z,94357.12
2018-11-07T12:10:20.825Z,94356.97
2018-11-07T12:12:53.088Z,94357.42
2018-11-07T12:15:23.566Z,94353.64
2018-11-07T12:17:53.137Z,94353.77
2018-11-07T12:20:22.393Z,94350.98
2018-11-07T12:22:51.619Z,94351.00
2018-11-07T12:25:22.687Z,94355.05
2018-11-07T12:27:52.528Z,94346.14
2018-11-07T12:30:22.940Z,94351.38
2018-11-07T12:32:53.195Z,94360.68
2018-11-07T12:35:22.683Z,94350.19
2018-11-07T12:37:51.884Z,94349.79
2018-11-07T12:40:21.343Z,94343.90
2018-11-07T12:42:50.578Z,94343.30
2018-11-07T12:45:19.743Z,94345.53
2018-11-07T12:47:48.963Z,94352.53
2018-11-07T12:50:22.568Z,94346.80
2018-11-07T12:52:51.698Z,94343.03
2018-11-07T12:55:21.574Z,94350.24
2018-11-07T12:57:50.872Z,94346.11
2018-11-07T13:00:22.226Z,94347.91
2018-11-07T13:02:51.523Z,94354.28
2018-11-07T13:05:21.455Z,94353.78
2018-11-07T13:07:52.092Z,94354.81
2018-11-07T13:10:22.180Z,94351.37
2018-11-07T13:12:51.892Z,94359.73
2018-11-07T13:15:21.360Z,94365.73
2018-11-07T13:17:51.241Z,94356.84
2018-11-07T13:20:21.968Z,94364.67
2018-11-07T13:22:52.204Z,94363.30
2018-11-07T13:25:21.842Z,94360.59
2018-11-07T13:27:51.030Z,94366.63
2018-11-07T13:30:21.207Z,94369.55
2018-11-07T13:32:50.409Z,94375.16
2018-11-07T13:35:20.103Z,94371.13
2018-11-07T13:37:50.125Z,94370.77
2018-11-07T13:40:22.464Z,94371.23
2018-11-07T13:42:51.854Z,94370.69
2018-11-07T13:45:22.097Z,94377.80
2018-11-07T13:47:52.366Z,94376.53
2018-11-07T13:50:21.662Z,94375.48
2018-11-07T13:52:51.038Z,94386.53
2018-11-07T13:55:20.326Z,94387.47
2018-11-07T13:57:49.589Z,94392.16
2018-11-07T14:00:20.082Z,94386.86
2018-11-07T14:02:49.691Z,94383.08
2018-11-07T14:05:19.059Z,94376.52
2018-11-07T14:07:48.143Z,94376.00
2018-11-07T14:10:21.448Z,94378.18
2018-11-07T14:12:50.896Z,94378.69
2018-11-07T14:15:20.510Z,94382.63
2018-11-07T14:17:49.899Z,94379.39
2018-11-07T14:20:19.127Z,94386.08
2018-11-07T14:22:48.352Z,94382.16
2018-11-07T14:25:17.553Z,94377.27
2018-11-07T14:27:46.926Z,94386.52
2018-11-07T14:30:17.224Z,94391.03
2018-11-07T14:32:57.493Z,94389.69
2018-11-07T14:35:26.724Z,94391.47
2018-11-07T14:37:56.727Z,94396.80
2018-11-07T14:40:25.938Z,94394.25
2018-11-07T14:42:55.449Z,94393.80
2018-11-07T14:45:24.647Z,94392.30
2018-11-07T14:47:53.918Z,94393.78
2018-11-07T14:50:23.040Z,94393.44
2018-11-07T14:52:52.254Z,94397.53
2018-11-07T14:55:21.503Z,94396.27
2018-11-07T14:57:50.697Z,94398.30
2018-11-07T15:00:19.909Z,94396.28
2018-11-07T15:02:49.174Z,94405.28
2018-11-07T15:05:19.008Z,94399.57
2018-11-07T15:07:48.155Z,94400.05
2018-11-07T15:10:17.950Z,94404.60
2018-11-07T15:12:47.138Z,94412.39
2018-11-07T15:15:17.563Z,94408.59
2018-11-07T15:17:46.802Z,94409.31
2018-11-07T15:20:16.839Z,94418.27
2018-11-07T15:22:46.031Z,94413.03
2018-11-07T15:25:16.075Z,94408.72
2018-11-07T15:27:46.160Z,94420.63
2018-11-07T15:30:16.090Z,94419.09
2018-11-07T15:32:45.613Z,94419.88
2018-11-07T15:35:14.890Z,94430.53
2018-11-07T15:37:44.071Z,94435.94
2018-11-07T15:40:16.293Z,94435.25
2018-11-07T15:42:46.011Z,94439.92
2018-11-07T15:45:16.464Z,94445.66
2018-11-07T15:47:45.819Z,94450.72
2018-11-07T15:50:20.165Z,94454.02
2018-11-07T15:52:49.794Z,94454.03
2018-11-07T15:55:18.926Z,94459.44
2018-11-07T15:57:48.147Z,94461.34
2018-11-07T16:00:18.198Z,94461.98
2018-11-07T16:02:47.390Z,94469.91
2018-11-07T16:05:17.068Z,94475.83
2018-11-07T16:07:46.234Z,94469.31
2018-11-07T16:10:16.735Z,94472.00
2018-11-07T16:12:46.807Z,94481.34
2018-11-07T16:15:18.193Z,94488.11
2018-11-07T16:17:49.144Z,94492.77
2018-11-07T16:20:20.020Z,94494.69
2018-11-07T16:22:50.456Z,94494.70
2018-11-07T16:25:20.066Z,94499.92
2018-11-07T16:27:49.367Z,94509.59
2018-11-07T16:30:21.595Z,94522.46
2018-11-07T16:32:51.430Z,94520.13
2018-11-07T16:35:21.631Z,94519.58
2018-11-07T16:37:51.410Z,94521.59
2018-11-07T16:40:20.857Z,94534.02
2018-11-07T16:42:50.776Z,94545.22
2018-11-07T16:45:20.206Z,94548.17
2018-11-07T16:47:49.687Z,94550.84
2018-11-07T16:50:19.359Z,94550.64
2018-11-07T16:52:49.111Z,94556.95
2018-11-07T16:55:18.992Z,94563.12
2018-11-07T16:57:48.278Z,94563.15
2018-11-07T17:00:19.059Z,94570.76
2018-11-07T17:02:48.948Z,94567.97
2018-11-07T17:05:18.684Z,94578.65
2018-11-07T17:07:48.268Z,94586.27
2018-11-07T17:10:18.087Z,94585.38
2018-11-07T17:12:47.547Z,94596.77
2018-11-07T17:15:16.724Z,94601.08
2018-11-07T17:17:45.912Z,94609.67
2018-11-07T17:20:15.805Z,94620.55
2018-11-07T17:22:45.699Z,94629.92
2018-11-07T17:25:17.064Z,94637.33
2018-11-07T17:27:46.286Z,94640.48
2018-11-07T17:30:16.574Z,94649.78
2018-11-07T17:32:45.766Z,94658.91
2018-11-07T17:35:16.134Z,94664.47
2018-11-07T17:37:45.651Z,94668.16
2018-11-07T17:40:17.464Z,94671.88
2018-11-07T17:42:47.074Z,94679.34
2018-11-07T17:45:18.059Z,94689.27
2018-11-07T17:47:47.902Z,94699.76
2018-11-07T17:50:17.689Z,94710.42
2018-11-07T17:52:47.107Z,94714.88
2018-11-07T17:55:17.341Z,94717.55
2018-11-07T17:57:46.515Z,94727.42
2018-11-07T18:00:17.820Z,94726.30
2018-11-07T18:02:47.194Z,94722.41
2018-11-07T18:05:16.490Z,94733.69
2018-11-07T18:07:45.764Z,94730.92
2018-11-07T18:10:16.319Z,94733.39
2018-11-07T18:12:45.789Z,94726.47
2018-11-07T18:15:14.973Z,94727.27
2018-11-07T18:17:45.436Z,94725.36
2018-11-07T18:20:15.540Z,94732.77
2018-11-07T18:22:44.823Z,94730.63
2018-11-07T18:25:14.869Z,94741.55
2018-11-07T18:27:44.090Z,94751.52
2018-11-07T18:30:15.112Z,94744.83
2018-11-07T18:32:44.950Z,94753.47
2018-11-07T18:35:16.131Z,94763.54
2018-11-07T18:37:45.470Z,94766.39
2018-11-07T18:40:15.987Z,94776.84
2018-11-07T18:42:45.229Z,94773.27
2018-11-07T18:45:14.743Z,94777.67
2018-11-07T18:47:45.027Z,94785.19
2018-11-07T18:50:15.702Z,94789.56
2018-11-07T18:52:45.023Z,94790.98
2018-11-07T18:55:15.294Z,94799.60
2018-11-07T18:57:45.083Z,94805.43
2018-11-07T19:00:16.484Z,94805.06
2018-11-07T19:02:46.119Z,94809.77
2018-11-07T19:05:15.294Z,94808.27
2018-11-07T19:07:44.622Z,94810.98
2018-11-07T19:10:16.225Z,94816.03
2018-11-07T19:12:46.249Z,94817.47
2018-11-07T19:15:15.984Z,94820.22
2018-11-07T19:17:45.999Z,94824.91
2018-11-07T19:20:15.976Z,94828.31
2018-11-07T19:22:45.151Z,94831.09
2018-11-07T19:25:15.684Z,94830.88
2018-11-07T19:27:44.918Z,94832.09
2018-11-07T19:30:15.623Z,94842.52
2018-11-07T19:32:45.926Z,94841.04
2018-11-07T19:35:15.969Z,94842.17
2018-11-07T19:37:45.646Z,94850.95
2018-11-07T19:40:17.554Z,94850.08
2018-11-07T19:42:46.707Z,94855.41
2018-11-07T19:45:17.202Z,94853.93
2018-11-07T19:47:46.478Z,94854.45
2018-11-07T19:50:16.796Z,94860.73
2018-11-07T19:52:47.374Z,94867.56
2018-11-07T19:55:18.411Z,94865.95
2018-11-07T19:57:52.934Z,94875.94
2018-11-07T20:00:22.119Z,94883.06
2018-11-07T20:02:51.337Z,94881.48
2018-11-07T20:05:20.522Z,94884.98
2018-11-07T20:07:49.746Z,94889.18
2018-11-07T20:10:20.127Z,94886.08
2018-11-07T20:12:49.222Z,94892.45
2018-11-07T20:15:19.394Z,94890.97
2018-11-07T20:17:48.784Z,94903.92
2018-11-07T20:20:18.219Z,94900.48
2018-11-07T20:22:47.496Z,94903.67
2018-11-07T20:25:16.967Z,94908.48
2018-11-07T20:27:46.327Z,94910.42
2018-11-07T20:30:16.918Z,94918.23
2018-11-07T20:32:46.143Z,94917.57
2018-11-07T20:35:16.822Z,94921.66
2018-11-07T20:37:46.023Z,94923.63
2018-11-07T20:40:16.513Z,94925.52
2018-11-07T20:42:46.032Z,94922.41
2018-11-07T20:45:15.823Z,94927.24
2018-11-07T20:47:45.750Z,94923.20
2018-11-07T20:50:16.241Z,94926.83
2018-11-07T20:52:45.902Z,94928.84
2018-11-07T20:55:15.543Z,94934.11
2018-11-07T20:57:44.822Z,94941.19
2018-11-07T21:00:18.242Z,94941.88
2018-11-07T21:02:47.927Z,94953.56
2018-11-07T21:05:17.138Z,94955.98
2018-11-07T21:07:46.355Z,94960.09
2018-11-07T21:10:16.984Z,94973.01
2018-11-07T21:12:46.579Z,94973.64
2018-11-07T21:15:17.023Z,94979.88
2018-11-07T21:17:46.470Z,94975.86
2018-11-07T21:20:15.843Z,94986.83
2018-11-07T21:22:45.047Z,94989.36
2018-11-07T21:25:14.767Z,94986.48
2018-11-07T21:27:44.295Z,94986.19
2018-11-07T21:30:14.487Z,94992.53
2018-11-07T21:32:44.095Z,94995.03
2018-11-07T21:35:13.357Z,94993.23
2018-11-07T21:37:42.555Z,94996.61
2018-11-07T21:40:15.203Z,94997.87
2018-11-07T21:42:45.114Z,94996.56
2018-11-07T21:45:15.016Z,94999.12
2018-11-07T21:47:44.436Z,94993.77
2018-11-07T21:50:15.671Z,94998.84
2018-11-07T21:52:44.911Z,94996.79
2018-11-07T21:55:15.338Z,95005.12
2018-11-07T21:57:44.545Z,95002.64
2018-11-07T22:00:17.206Z,95004.09
2018-11-07T22:02:46.543Z,95010.39
2018-11-07T22:05:16.478Z,95013.95
2018-11-07T22:07:45.714Z,95016.95
2018-11-07T22:10:16.172Z,95011.82
2018-11-07T22:12:45.423Z,95020.09
2018-11-07T22:15:14.626Z,95021.89
2018-11-07T22:17:43.858Z,95027.22
2018-11-07T22:20:17.214Z,95024.67
2018-11-07T22:22:46.825Z,95026.16
2018-11-07T22:25:16.038Z,95029.31
2018-11-07T22:27:45.267Z,95035.67
2018-11-07T22:30:15.783Z,95033.44
2018-11-07T22:32:45.011Z,95041.77
2018-11-07T22:35:16.176Z,95043.07
2018-11-07T22:37:45.909Z,95043.14
2018-11-07T22:40:16.318Z,95047.77
2018-11-07T22:42:45.514Z,95047.63
2018-11-07T22:45:15.139Z,95057.20
2018-11-07T22:47:44.389Z,95058.64
2018-11-07T22:50:14.682Z,95057.61
2018-11-07T22:52:44.662Z,95064.37
2018-11-07T22:55:13.909Z,95066.38
2018-11-07T22:57:43.123Z,95066.38
2018-11-07T23:00:20.340Z,95070.09
2018-11-07T23:02:51.184Z,95075.91
2018-11-07T23:05:21.128Z,95073.73
2018-11-07T23:07:50.900Z,95071.66
2018-11-07T23:10:20.124Z,95076.11
2018-11-07T23:12:49.656Z,95077.53
2018-11-07T23:15:24.011Z,95084.64
2018-11-07T23:17:53.226Z,95089.62
2018-11-07T23:20:22.487Z,95090.92
2018-11-07T23:22:51.695Z,95091.98
2018-11-07T23:25:20.982Z,95094.11
2018-11-07T23:27:50.231Z,95096.33
2018-11-07T23:30:19.448Z,95100.48
2018-11-07T23:32:48.654Z,95098.27
2018-11-07T23:35:17.878Z,95098.52
2018-11-07T23:37:47.078Z,95102.78
2018-11-07T23:40:16.296Z,95106.88
2018-11-07T23:42:45.522Z,95112.02
2018-11-07T23:45:14.724Z,95111.03
2018-11-07T23:47:43.917Z,95111.23
2018-11-07T23:50:13.151Z,95117.11
2018-11-07T23:52:47.234Z,95119.09
2018-11-07T23:55:17.660Z,95121.30
2018-11-07T23:57:47.010Z,95117.67
